METAR AND TAF INFORMATION
METAR FOR EPWA
ADDS - METARS form results

(0137 UTC 18 June 2019)
Data provider http://aviationweather.gov/metar/data/
 
METAR text: EPWA 180130Z 06004KT CAVOK 17/12 Q1021 NOSIG
Conditions at: EPWA (WARSAW/OKECIE , PL) observed 0130 UTC 18 June 2019
Temperature: 17.0°C (63°F)
Dewpoint: 12.0°C (54°F) [RH = 72%]
Pressure (altimeter): 30.15 inches Hg (1021.0 mb)
Winds: from the ENE (60 degrees) at 5 MPH (4 knots; 2.1 m/s)
Visibility: 6 or more miles (10+ km)
Ceiling: ceiling and visibility are OK
Clouds: unknown
Weather: no significant weather observed at this time

METAR text: EPWA 180100Z 05005KT CAVOK 17/12 Q1021 NOSIG
Conditions at: EPWA (WARSAW/OKECIE , PL) observed 0100 UTC 18 June 2019
Temperature: 17.0°C (63°F)
Dewpoint: 12.0°C (54°F) [RH = 72%]
Pressure (altimeter): 30.15 inches Hg (1021.0 mb)
Winds: from the NE (50 degrees) at 6 MPH (5 knots; 2.6 m/s)
Visibility: 6 or more miles (10+ km)
Ceiling: ceiling and visibility are OK
Clouds: unknown
Weather: no significant weather observed at this time

Forecast for: EPWA (WARSAW/OKECIE , PL)
Text: TAF EPWA 172330Z 1800/1824 04005KT CAVOK
Forecast period: 0000 UTC 18 June 2019 to 0000 UTC 19 June 2019
Forecast type: FROM: standard forecast or significant change
Winds: from the NE (40 degrees) at 6 MPH (5 knots; 2.6 m/s)
Visibility: 6 or more miles 10+ km)
Ceiling: unknown
Clouds: missing
Weather: NSW  (no significant weather)

 AIRPORT MAP

 RUNWAY INFORMATION
Runway 11 Runway length 9186 ft Runway width 164 ft
Runway elevation 361 ft Runway displaced threshold 0 ft Runway heading 115
Runway 29 Runway length 9186 ft Runway width 164 ft
Runway elevation 344 ft Runway displaced threshold 1640 ft Runway heading 295
Runway 15 Runway length 12106 ft Runway width 197 ft
Runway elevation 351 ft Runway displaced threshold 0 ft Runway heading 152
Runway 33 Runway length 12106 ft Runway width 197 ft
Runway elevation 351 ft Runway displaced threshold 0 ft Runway heading 332

 AIRPORT FREQUENCIES
Type APP Name WARSZAWA A Frequency 128.8 MHZ
Type ATIS Name ATIS Frequency 120.45 MHZ
Type CLD Name CLNC DEL Frequency 121.6 MHZ
Type DIR Name WARSZAWA D Frequency 129.375 MHZ
Type GND Name GND Frequency 121.9 MHZ
Type TWR Name TWR Frequency 118.3 MHZ

 AIRPORT NEAR NAVIGATION AIDS
Type VOR-DME Name Okecie Frequency 113400 KHZ
Type NDB Name Piaseczno Frequency 330 KHZ
Type NDB Name Warszawa Frequency 336 KHZ
Type NDB Name Warszawa Frequency 412 KHZ
Type VOR-DME Name Zaborowek Frequency 114900 KHZ



Powered by Virtual Airlines Manager [v2.6.2]